Bolan, Iowa
Current Conditions -  °F | °C
As of 7:24 AM on Friday 19 Dec 2014 (Local Time) from KMCW Reporting Station
Overcast Overcast  
Wind Chill: 17°   Ceiling: 1400
Heat Index: 25°   Visibility: 7mi
Dew Point: 21°   Wind: 7mph
Humidity: 85%   Direction: 150°SSE
Pressure: 30.25"   Gusts: NA
Location:  43.3847°N, 93.1428°W
Report Text: KMCW 191324Z AUTO 15006KT 7SM OVC014 M04/M06 A3025 RMK AO2 T10391061
Loading
Personal Weather Stations






























Interactive Weather Map New forecast layout! Learn more

10-Day Weather Forecast

Advertisements
Track Severe Weather on mobile